sensor_id;sensor_type;location;lat;lon;timestamp;P1;durP1;ratioP1;P2;durP2;ratioP2
37851;SDS011;23691;52.486;4.650;2022-09-09T00:04:02;10.63;;;3.08;;
37851;SDS011;23691;52.486;4.650;2022-09-09T00:06:31;9.40;;;2.88;;
37851;SDS011;23691;52.486;4.650;2022-09-09T00:09:12;9.40;;;2.88;;
37851;SDS011;23691;52.486;4.650;2022-09-09T00:20:16;8.65;;;3.30;;
37851;SDS011;23691;52.486;4.650;2022-09-09T00:25:51;10.57;;;3.47;;
37851;SDS011;23691;52.486;4.650;2022-09-09T00:28:24;8.93;;;3.63;;
37851;SDS011;23691;52.486;4.650;2022-09-09T00:30:52;10.38;;;3.40;;
37851;SDS011;23691;52.486;4.650;2022-09-09T00:33:19;9.30;;;3.40;;
37851;SDS011;23691;52.486;4.650;2022-09-09T00:35:48;10.07;;;3.63;;
37851;SDS011;23691;52.486;4.650;2022-09-09T00:38:18;11.75;;;3.55;;
37851;SDS011;23691;52.486;4.650;2022-09-09T00:40:52;10.73;;;3.88;;
37851;SDS011;23691;52.486;4.650;2022-09-09T00:48:18;11.15;;;4.00;;
37851;SDS011;23691;52.486;4.650;2022-09-09T00:50:54;10.32;;;3.65;;
37851;SDS011;23691;52.486;4.650;2022-09-09T00:53:39;11.07;;;4.43;;
37851;SDS011;23691;52.486;4.650;2022-09-09T00:56:33;12.02;;;4.15;;
37851;SDS011;23691;52.486;4.650;2022-09-09T00:59:28;12.50;;;4.70;;
37851;SDS011;23691;52.486;4.650;2022-09-09T01:02:10;11.57;;;4.50;;
37851;SDS011;23691;52.486;4.650;2022-09-09T01:04:43;11.55;;;4.25;;
37851;SDS011;23691;52.486;4.650;2022-09-09T01:07:18;12.27;;;4.78;;
37851;SDS011;23691;52.486;4.650;2022-09-09T01:14:54;11.85;;;5.03;;
37851;SDS011;23691;52.486;4.650;2022-09-09T01:27:57;12.15;;;5.20;;
37851;SDS011;23691;52.486;4.650;2022-09-09T01:30:25;12.65;;;6.03;;
37851;SDS011;23691;52.486;4.650;2022-09-09T01:32:56;11.30;;;5.50;;
37851;SDS011;23691;52.486;4.650;2022-09-09T01:37:56;14.85;;;5.95;;
37851;SDS011;23691;52.486;4.650;2022-09-09T01:40:22;13.20;;;6.13;;
37851;SDS011;23691;52.486;4.650;2022-09-09T01:42:48;14.07;;;6.53;;
37851;SDS011;23691;52.486;4.650;2022-09-09T01:45:14;12.85;;;6.63;;
37851;SDS011;23691;52.486;4.650;2022-09-09T01:47:39;14.57;;;5.95;;
37851;SDS011;23691;52.486;4.650;2022-09-09T01:50:05;17.08;;;6.78;;
37851;SDS011;23691;52.486;4.650;2022-09-09T01:55:01;15.02;;;6.72;;
37851;SDS011;23691;52.486;4.650;2022-09-09T01:57:31;15.00;;;7.00;;
37851;SDS011;23691;52.486;4.650;2022-09-09T02:02:33;17.52;;;7.18;;
37851;SDS011;23691;52.486;4.650;2022-09-09T02:05:10;16.20;;;7.90;;
37851;SDS011;23691;52.486;4.650;2022-09-09T02:07:47;14.68;;;7.50;;
37851;SDS011;23691;52.486;4.650;2022-09-09T02:10:22;14.63;;;8.15;;
37851;SDS011;23691;52.486;4.650;2022-09-09T02:12:56;16.10;;;8.48;;
37851;SDS011;23691;52.486;4.650;2022-09-09T02:15:33;16.65;;;9.38;;
37851;SDS011;23691;52.486;4.650;2022-09-09T02:17:59;18.67;;;9.60;;
37851;SDS011;23691;52.486;4.650;2022-09-09T02:20:29;20.17;;;10.02;;
37851;SDS011;23691;52.486;4.650;2022-09-09T02:22:58;18.00;;;9.77;;
37851;SDS011;23691;52.486;4.650;2022-09-09T02:25:26;20.65;;;10.55;;
37851;SDS011;23691;52.486;4.650;2022-09-09T02:27:54;18.42;;;10.43;;
37851;SDS011;23691;52.486;4.650;2022-09-09T02:30:23;18.40;;;10.13;;
37851;SDS011;23691;52.486;4.650;2022-09-09T02:32:48;18.65;;;10.02;;
37851;SDS011;23691;52.486;4.650;2022-09-09T02:35:19;20.58;;;10.30;;
37851;SDS011;23691;52.486;4.650;2022-09-09T02:37:49;17.23;;;10.10;;
37851;SDS011;23691;52.486;4.650;2022-09-09T02:40:18;18.25;;;9.85;;
37851;SDS011;23691;52.486;4.650;2022-09-09T02:42:45;15.20;;;9.50;;
37851;SDS011;23691;52.486;4.650;2022-09-09T02:45:14;18.67;;;9.80;;
37851;SDS011;23691;52.486;4.650;2022-09-09T02:47:56;21.08;;;10.35;;
37851;SDS011;23691;52.486;4.650;2022-09-09T02:50:35;21.33;;;10.68;;
37851;SDS011;23691;52.486;4.650;2022-09-09T02:53:17;18.98;;;10.13;;
37851;SDS011;23691;52.486;4.650;2022-09-09T02:55:48;18.37;;;9.90;;
37851;SDS011;23691;52.486;4.650;2022-09-09T02:58:19;20.73;;;10.48;;
37851;SDS011;23691;52.486;4.650;2022-09-09T03:00:47;19.55;;;10.90;;
37851;SDS011;23691;52.486;4.650;2022-09-09T03:03:14;20.88;;;10.88;;
37851;SDS011;23691;52.486;4.650;2022-09-09T03:05:41;17.95;;;11.20;;
37851;SDS011;23691;52.486;4.650;2022-09-09T03:08:07;17.67;;;11.25;;
37851;SDS011;23691;52.486;4.650;2022-09-09T03:10:32;18.02;;;11.30;;
37851;SDS011;23691;52.486;4.650;2022-09-09T03:12:58;20.83;;;12.35;;
37851;SDS011;23691;52.486;4.650;2022-09-09T03:15:24;18.73;;;11.45;;
37851;SDS011;23691;52.486;4.650;2022-09-09T03:17:49;20.25;;;11.20;;
37851;SDS011;23691;52.486;4.650;2022-09-09T03:20:15;21.05;;;11.57;;
37851;SDS011;23691;52.486;4.650;2022-09-09T03:22:40;19.95;;;11.20;;
37851;SDS011;23691;52.486;4.650;2022-09-09T03:25:06;21.20;;;11.77;;
37851;SDS011;23691;52.486;4.650;2022-09-09T03:27:31;19.88;;;10.45;;
37851;SDS011;23691;52.486;4.650;2022-09-09T03:29:57;18.27;;;10.45;;
37851;SDS011;23691;52.486;4.650;2022-09-09T03:32:23;18.48;;;9.80;;
37851;SDS011;23691;52.486;4.650;2022-09-09T03:34:50;18.75;;;10.27;;
37851;SDS011;23691;52.486;4.650;2022-09-09T03:37:17;18.33;;;10.07;;
37851;SDS011;23691;52.486;4.650;2022-09-09T03:39:43;16.10;;;9.38;;
37851;SDS011;23691;52.486;4.650;2022-09-09T03:42:08;17.23;;;9.25;;
37851;SDS011;23691;52.486;4.650;2022-09-09T03:44:34;17.65;;;9.15;;
37851;SDS011;23691;52.486;4.650;2022-09-09T03:46:59;16.00;;;8.27;;
37851;SDS011;23691;52.486;4.650;2022-09-09T03:49:25;20.17;;;8.32;;
37851;SDS011;23691;52.486;4.650;2022-09-09T03:51:53;14.95;;;7.97;;
37851;SDS011;23691;52.486;4.650;2022-09-09T03:54:19;14.35;;;8.10;;
37851;SDS011;23691;52.486;4.650;2022-09-09T03:56:45;15.73;;;7.47;;
37851;SDS011;23691;52.486;4.650;2022-09-09T03:59:10;15.65;;;8.13;;
37851;SDS011;23691;52.486;4.650;2022-09-09T04:01:36;12.70;;;7.20;;
37851;SDS011;23691;52.486;4.650;2022-09-09T04:04:01;16.40;;;7.65;;
37851;SDS011;23691;52.486;4.650;2022-09-09T04:06:27;15.25;;;7.65;;
37851;SDS011;23691;52.486;4.650;2022-09-09T04:08:52;15.52;;;7.55;;
37851;SDS011;23691;52.486;4.650;2022-09-09T04:11:18;17.23;;;7.47;;
37851;SDS011;23691;52.486;4.650;2022-09-09T04:13:44;16.35;;;7.47;;
37851;SDS011;23691;52.486;4.650;2022-09-09T04:16:10;14.57;;;7.22;;
37851;SDS011;23691;52.486;4.650;2022-09-09T04:18:36;16.92;;;7.18;;
37851;SDS011;23691;52.486;4.650;2022-09-09T04:21:02;17.05;;;7.32;;
37851;SDS011;23691;52.486;4.650;2022-09-09T04:23:29;12.80;;;7.35;;
37851;SDS011;23691;52.486;4.650;2022-09-09T04:25:55;14.00;;;7.30;;
37851;SDS011;23691;52.486;4.650;2022-09-09T04:28:23;16.33;;;7.40;;
37851;SDS011;23691;52.486;4.650;2022-09-09T04:30:50;14.60;;;7.55;;
37851;SDS011;23691;52.486;4.650;2022-09-09T04:33:16;15.82;;;7.45;;
37851;SDS011;23691;52.486;4.650;2022-09-09T04:35:49;16.25;;;8.18;;
37851;SDS011;23691;52.486;4.650;2022-09-09T04:38:15;15.32;;;7.30;;
37851;SDS011;23691;52.486;4.650;2022-09-09T04:40:50;19.98;;;8.57;;
37851;SDS011;23691;52.486;4.650;2022-09-09T04:43:17;14.60;;;7.40;;
37851;SDS011;23691;52.486;4.650;2022-09-09T04:45:46;17.80;;;7.80;;
37851;SDS011;23691;52.486;4.650;2022-09-09T04:48:13;18.00;;;8.02;;
37851;SDS011;23691;52.486;4.650;2022-09-09T04:50:39;15.90;;;8.30;;
37851;SDS011;23691;52.486;4.650;2022-09-09T04:53:05;16.35;;;7.88;;
37851;SDS011;23691;52.486;4.650;2022-09-09T04:55:32;15.95;;;7.75;;
37851;SDS011;23691;52.486;4.650;2022-09-09T04:58:05;16.65;;;7.75;;
37851;SDS011;23691;52.486;4.650;2022-09-09T05:00:33;14.05;;;7.88;;
37851;SDS011;23691;52.486;4.650;2022-09-09T05:03:04;18.20;;;7.10;;
37851;SDS011;23691;52.486;4.650;2022-09-09T05:05:31;15.18;;;7.55;;
37851;SDS011;23691;52.486;4.650;2022-09-09T05:08:05;14.00;;;7.32;;
37851;SDS011;23691;52.486;4.650;2022-09-09T05:10:33;14.88;;;7.03;;
37851;SDS011;23691;52.486;4.650;2022-09-09T05:13:01;12.95;;;6.80;;
37851;SDS011;23691;52.486;4.650;2022-09-09T05:15:26;15.50;;;6.90;;
37851;SDS011;23691;52.486;4.650;2022-09-09T05:17:52;15.65;;;6.25;;
37851;SDS011;23691;52.486;4.650;2022-09-09T05:20:18;16.05;;;6.63;;
37851;SDS011;23691;52.486;4.650;2022-09-09T05:22:43;14.63;;;6.22;;
37851;SDS011;23691;52.486;4.650;2022-09-09T05:25:09;15.75;;;6.15;;
37851;SDS011;23691;52.486;4.650;2022-09-09T05:27:34;15.65;;;6.05;;
37851;SDS011;23691;52.486;4.650;2022-09-09T05:30:00;15.60;;;6.22;;
37851;SDS011;23691;52.486;4.650;2022-09-09T05:32:25;12.55;;;5.47;;
37851;SDS011;23691;52.486;4.650;2022-09-09T05:34:51;13.15;;;5.40;;
37851;SDS011;23691;52.486;4.650;2022-09-09T05:37:17;14.43;;;5.32;;
37851;SDS011;23691;52.486;4.650;2022-09-09T05:39:43;14.02;;;5.15;;
37851;SDS011;23691;52.486;4.650;2022-09-09T05:42:09;17.38;;;5.07;;
37851;SDS011;23691;52.486;4.650;2022-09-09T05:44:34;11.15;;;4.60;;
37851;SDS011;23691;52.486;4.650;2022-09-09T05:47:00;10.80;;;4.50;;
37851;SDS011;23691;52.486;4.650;2022-09-09T05:49:25;13.75;;;4.50;;
37851;SDS011;23691;52.486;4.650;2022-09-09T05:51:52;13.15;;;4.47;;
37851;SDS011;23691;52.486;4.650;2022-09-09T05:54:18;10.75;;;4.22;;
37851;SDS011;23691;52.486;4.650;2022-09-09T05:56:44;18.02;;;4.60;;
37851;SDS011;23691;52.486;4.650;2022-09-09T05:59:09;12.93;;;4.35;;
37851;SDS011;23691;52.486;4.650;2022-09-09T06:01:36;14.68;;;4.68;;
37851;SDS011;23691;52.486;4.650;2022-09-09T06:04:05;12.95;;;4.55;;
37851;SDS011;23691;52.486;4.650;2022-09-09T06:06:32;14.88;;;4.32;;
37851;SDS011;23691;52.486;4.650;2022-09-09T06:09:02;12.00;;;4.07;;
37851;SDS011;23691;52.486;4.650;2022-09-09T06:11:31;11.73;;;4.22;;
37851;SDS011;23691;52.486;4.650;2022-09-09T06:13:58;16.80;;;4.32;;
37851;SDS011;23691;52.486;4.650;2022-09-09T06:16:25;11.63;;;4.15;;
37851;SDS011;23691;52.486;4.650;2022-09-09T06:18:52;12.73;;;3.90;;
37851;SDS011;23691;52.486;4.650;2022-09-09T06:24:03;10.77;;;4.13;;
37851;SDS011;23691;52.486;4.650;2022-09-09T06:26:29;11.48;;;3.60;;
37851;SDS011;23691;52.486;4.650;2022-09-09T06:28:58;12.48;;;3.53;;
37851;SDS011;23691;52.486;4.650;2022-09-09T06:31:26;10.13;;;3.47;;
37851;SDS011;23691;52.486;4.650;2022-09-09T06:33:55;11.60;;;3.85;;
37851;SDS011;23691;52.486;4.650;2022-09-09T06:36:23;10.88;;;3.40;;
37851;SDS011;23691;52.486;4.650;2022-09-09T06:38:58;11.73;;;3.45;;
37851;SDS011;23691;52.486;4.650;2022-09-09T06:41:25;12.57;;;3.40;;
37851;SDS011;23691;52.486;4.650;2022-09-09T06:43:54;10.30;;;3.25;;
37851;SDS011;23691;52.486;4.650;2022-09-09T06:46:27;11.63;;;3.05;;
37851;SDS011;23691;52.486;4.650;2022-09-09T06:48:55;12.93;;;2.90;;
37851;SDS011;23691;52.486;4.650;2022-09-09T06:51:24;12.57;;;3.22;;
37851;SDS011;23691;52.486;4.650;2022-09-09T06:53:55;11.10;;;2.85;;
37851;SDS011;23691;52.486;4.650;2022-09-09T06:56:26;11.27;;;2.83;;
37851;SDS011;23691;52.486;4.650;2022-09-09T06:58:56;13.52;;;3.10;;
37851;SDS011;23691;52.486;4.650;2022-09-09T07:01:30;12.75;;;3.10;;
37851;SDS011;23691;52.486;4.650;2022-09-09T07:03:57;13.65;;;2.90;;
37851;SDS011;23691;52.486;4.650;2022-09-09T07:06:27;12.65;;;2.90;;
37851;SDS011;23691;52.486;4.650;2022-09-09T07:08:59;13.60;;;3.10;;
37851;SDS011;23691;52.486;4.650;2022-09-09T07:11:26;9.63;;;3.00;;
37851;SDS011;23691;52.486;4.650;2022-09-09T07:13:53;10.52;;;3.10;;
37851;SDS011;23691;52.486;4.650;2022-09-09T07:16:20;13.45;;;3.60;;
37851;SDS011;23691;52.486;4.650;2022-09-09T07:18:49;12.23;;;3.17;;
37851;SDS011;23691;52.486;4.650;2022-09-09T07:21:16;12.05;;;3.30;;
37851;SDS011;23691;52.486;4.650;2022-09-09T07:23:42;9.85;;;3.03;;
37851;SDS011;23691;52.486;4.650;2022-09-09T07:26:13;12.55;;;2.83;;
37851;SDS011;23691;52.486;4.650;2022-09-09T07:28:40;12.30;;;3.30;;
37851;SDS011;23691;52.486;4.650;2022-09-09T07:31:07;11.45;;;3.20;;
37851;SDS011;23691;52.486;4.650;2022-09-09T07:33:38;12.80;;;3.15;;
37851;SDS011;23691;52.486;4.650;2022-09-09T07:36:10;15.00;;;3.80;;
37851;SDS011;23691;52.486;4.650;2022-09-09T07:38:45;14.75;;;3.50;;
37851;SDS011;23691;52.486;4.650;2022-09-09T07:41:13;11.05;;;3.20;;
37851;SDS011;23691;52.486;4.650;2022-09-09T07:43:44;14.82;;;3.53;;
37851;SDS011;23691;52.486;4.650;2022-09-09T07:46:11;14.68;;;3.05;;
37851;SDS011;23691;52.486;4.650;2022-09-09T07:48:38;11.93;;;3.50;;
37851;SDS011;23691;52.486;4.650;2022-09-09T07:53:36;14.50;;;3.22;;
37851;SDS011;23691;52.486;4.650;2022-09-09T07:56:08;13.48;;;3.47;;
37851;SDS011;23691;52.486;4.650;2022-09-09T07:58:38;13.00;;;3.17;;
37851;SDS011;23691;52.486;4.650;2022-09-09T08:01:09;15.57;;;3.33;;
37851;SDS011;23691;52.486;4.650;2022-09-09T08:03:36;10.88;;;3.30;;
37851;SDS011;23691;52.486;4.650;2022-09-09T08:06:03;13.88;;;3.40;;
37851;SDS011;23691;52.486;4.650;2022-09-09T08:08:31;12.48;;;2.72;;
37851;SDS011;23691;52.486;4.650;2022-09-09T08:11:16;14.88;;;3.42;;
37851;SDS011;23691;52.486;4.650;2022-09-09T08:13:42;13.85;;;2.90;;
37851;SDS011;23691;52.486;4.650;2022-09-09T08:16:16;10.25;;;2.70;;
37851;SDS011;23691;52.486;4.650;2022-09-09T08:18:49;11.93;;;3.10;;
37851;SDS011;23691;52.486;4.650;2022-09-09T08:21:23;14.18;;;3.13;;
37851;SDS011;23691;52.486;4.650;2022-09-09T08:23:50;14.73;;;3.00;;
37851;SDS011;23691;52.486;4.650;2022-09-09T08:26:27;16.00;;;3.08;;
37851;SDS011;23691;52.486;4.650;2022-09-09T08:28:58;11.77;;;2.80;;
37851;SDS011;23691;52.486;4.650;2022-09-09T08:31:35;10.37;;;2.90;;
37851;SDS011;23691;52.486;4.650;2022-09-09T08:34:02;8.53;;;2.23;;
37851;SDS011;23691;52.486;4.650;2022-09-09T08:36:30;11.18;;;2.90;;
37851;SDS011;23691;52.486;4.650;2022-09-09T08:38:58;10.30;;;2.58;;
37851;SDS011;23691;52.486;4.650;2022-09-09T08:44:10;16.42;;;3.00;;
37851;SDS011;23691;52.486;4.650;2022-09-09T08:47:05;12.30;;;3.00;;
37851;SDS011;23691;52.486;4.650;2022-09-09T08:49:43;14.75;;;3.45;;
37851;SDS011;23691;52.486;4.650;2022-09-09T08:52:13;11.43;;;2.65;;
37851;SDS011;23691;52.486;4.650;2022-09-09T08:54:52;13.70;;;3.10;;
37851;SDS011;23691;52.486;4.650;2022-09-09T08:57:23;12.10;;;3.05;;
37851;SDS011;23691;52.486;4.650;2022-09-09T08:59:52;13.77;;;2.75;;
37851;SDS011;23691;52.486;4.650;2022-09-09T09:10:56;11.32;;;2.50;;
37851;SDS011;23691;52.486;4.650;2022-09-09T09:13:37;10.32;;;2.20;;
37851;SDS011;23691;52.486;4.650;2022-09-09T09:19:04;10.35;;;2.47;;
37851;SDS011;23691;52.486;4.650;2022-09-09T09:26:43;13.45;;;2.50;;
37851;SDS011;23691;52.486;4.650;2022-09-09T09:29:27;14.43;;;2.83;;
37851;SDS011;23691;52.486;4.650;2022-09-09T09:31:54;16.05;;;2.60;;
37851;SDS011;23691;52.486;4.650;2022-09-09T09:34:22;13.20;;;2.97;;
37851;SDS011;23691;52.486;4.650;2022-09-09T09:36:53;17.13;;;2.85;;
37851;SDS011;23691;52.486;4.650;2022-09-09T09:39:24;15.25;;;2.95;;
37851;SDS011;23691;52.486;4.650;2022-09-09T09:42:11;14.35;;;2.60;;
37851;SDS011;23691;52.486;4.650;2022-09-09T09:44:40;11.05;;;2.60;;
37851;SDS011;23691;52.486;4.650;2022-09-09T09:47:17;13.80;;;2.90;;
37851;SDS011;23691;52.486;4.650;2022-09-09T09:49:56;14.77;;;2.87;;
37851;SDS011;23691;52.486;4.650;2022-09-09T09:52:28;12.13;;;2.53;;
37851;SDS011;23691;52.486;4.650;2022-09-09T09:54:55;11.25;;;2.83;;
37851;SDS011;23691;52.486;4.650;2022-09-09T09:57:24;14.65;;;2.85;;
37851;SDS011;23691;52.486;4.650;2022-09-09T10:02:49;14.90;;;2.28;;
37851;SDS011;23691;52.486;4.650;2022-09-09T10:05:25;11.75;;;2.30;;
37851;SDS011;23691;52.486;4.650;2022-09-09T10:35:53;9.70;;;2.15;;
37851;SDS011;23691;52.486;4.650;2022-09-09T10:38:42;11.93;;;1.90;;
37851;SDS011;23691;52.486;4.650;2022-09-09T10:43:55;10.57;;;2.17;;
37851;SDS011;23691;52.486;4.650;2022-09-09T10:57:10;9.57;;;2.28;;
37851;SDS011;23691;52.486;4.650;2022-09-09T10:59:47;10.23;;;2.08;;
37851;SDS011;23691;52.486;4.650;2022-09-09T11:02:25;10.25;;;1.90;;
37851;SDS011;23691;52.486;4.650;2022-09-09T11:07:37;10.38;;;1.90;;
37851;SDS011;23691;52.486;4.650;2022-09-09T11:12:48;12.65;;;1.98;;
37851;SDS011;23691;52.486;4.650;2022-09-09T11:15:20;9.30;;;1.58;;
37851;SDS011;23691;52.486;4.650;2022-09-09T11:17:56;9.73;;;1.80;;
37851;SDS011;23691;52.486;4.650;2022-09-09T11:20:26;10.60;;;1.88;;
37851;SDS011;23691;52.486;4.650;2022-09-09T11:25:29;14.07;;;1.88;;
37851;SDS011;23691;52.486;4.650;2022-09-09T11:38:44;9.20;;;1.83;;
37851;SDS011;23691;52.486;4.650;2022-09-09T11:41:16;11.38;;;2.10;;
37851;SDS011;23691;52.486;4.650;2022-09-09T11:46:18;10.43;;;1.90;;
37851;SDS011;23691;52.486;4.650;2022-09-09T11:48:59;11.18;;;2.33;;
37851;SDS011;23691;52.486;4.650;2022-09-09T11:51:28;9.32;;;1.77;;
37851;SDS011;23691;52.486;4.650;2022-09-09T11:56:44;11.20;;;2.40;;
37851;SDS011;23691;52.486;4.650;2022-09-09T11:59:20;9.57;;;2.08;;
37851;SDS011;23691;52.486;4.650;2022-09-09T12:12:50;10.20;;;1.65;;
37851;SDS011;23691;52.486;4.650;2022-09-09T12:17:52;6.93;;;1.55;;
37851;SDS011;23691;52.486;4.650;2022-09-09T12:30:55;8.25;;;1.63;;
37851;SDS011;23691;52.486;4.650;2022-09-09T12:33:36;7.78;;;1.50;;
37851;SDS011;23691;52.486;4.650;2022-09-09T12:36:09;9.05;;;1.40;;
37851;SDS011;23691;52.486;4.650;2022-09-09T12:38:39;6.82;;;1.55;;
37851;SDS011;23691;52.486;4.650;2022-09-09T12:41:17;5.25;;;1.45;;
37851;SDS011;23691;52.486;4.650;2022-09-09T12:43:45;8.80;;;1.77;;
37851;SDS011;23691;52.486;4.650;2022-09-09T12:46:14;10.10;;;1.83;;
37851;SDS011;23691;52.486;4.650;2022-09-09T12:48:48;8.85;;;1.65;;
37851;SDS011;23691;52.486;4.650;2022-09-09T12:51:24;5.82;;;1.40;;
37851;SDS011;23691;52.486;4.650;2022-09-09T12:53:53;7.97;;;1.13;;
37851;SDS011;23691;52.486;4.650;2022-09-09T12:56:21;7.25;;;1.45;;
37851;SDS011;23691;52.486;4.650;2022-09-09T12:58:50;5.15;;;1.10;;
37851;SDS011;23691;52.486;4.650;2022-09-09T13:03:53;8.50;;;1.35;;
37851;SDS011;23691;52.486;4.650;2022-09-09T13:06:21;7.43;;;1.55;;
37851;SDS011;23691;52.486;4.650;2022-09-09T13:08:49;8.45;;;1.73;;
37851;SDS011;23691;52.486;4.650;2022-09-09T13:13:50;8.43;;;1.80;;
37851;SDS011;23691;52.486;4.650;2022-09-09T13:16:26;7.32;;;1.65;;
37851;SDS011;23691;52.486;4.650;2022-09-09T13:19:16;8.35;;;1.45;;
37851;SDS011;23691;52.486;4.650;2022-09-09T13:21:42;8.02;;;1.60;;
37851;SDS011;23691;52.486;4.650;2022-09-09T13:27:00;6.07;;;1.60;;
37851;SDS011;23691;52.486;4.650;2022-09-09T13:29:27;9.25;;;1.83;;
37851;SDS011;23691;52.486;4.650;2022-09-09T13:32:02;8.67;;;1.67;;
37851;SDS011;23691;52.486;4.650;2022-09-09T13:34:31;8.23;;;1.30;;
37851;SDS011;23691;52.486;4.650;2022-09-09T13:37:00;6.97;;;1.73;;
37851;SDS011;23691;52.486;4.650;2022-09-09T13:39:27;6.70;;;1.50;;
37851;SDS011;23691;52.486;4.650;2022-09-09T13:41:53;7.72;;;1.52;;
37851;SDS011;23691;52.486;4.650;2022-09-09T13:44:27;9.05;;;1.52;;
37851;SDS011;23691;52.486;4.650;2022-09-09T13:47:38;8.23;;;1.70;;
37851;SDS011;23691;52.486;4.650;2022-09-09T13:49:46;7.90;;;1.70;;
37851;SDS011;23691;52.486;4.650;2022-09-09T13:52:13;9.75;;;1.80;;
37851;SDS011;23691;52.486;4.650;2022-09-09T13:54:41;7.15;;;1.60;;
37851;SDS011;23691;52.486;4.650;2022-09-09T13:57:49;5.88;;;1.48;;
37851;SDS011;23691;52.486;4.650;2022-09-09T14:00:00;5.80;;;1.60;;
37851;SDS011;23691;52.486;4.650;2022-09-09T14:02:26;8.85;;;2.00;;
37851;SDS011;23691;52.486;4.650;2022-09-09T14:04:51;7.95;;;1.80;;
37851;SDS011;23691;52.486;4.650;2022-09-09T14:07:20;8.75;;;1.70;;
37851;SDS011;23691;52.486;4.650;2022-09-09T14:09:46;8.80;;;1.33;;
37851;SDS011;23691;52.486;4.650;2022-09-09T14:12:15;5.95;;;1.40;;
37851;SDS011;23691;52.486;4.650;2022-09-09T14:14:41;7.25;;;1.50;;
37851;SDS011;23691;52.486;4.650;2022-09-09T14:17:07;4.38;;;1.20;;
37851;SDS011;23691;52.486;4.650;2022-09-09T14:19:33;7.72;;;1.40;;
37851;SDS011;23691;52.486;4.650;2022-09-09T14:21:59;8.45;;;1.30;;
37851;SDS011;23691;52.486;4.650;2022-09-09T14:24:25;7.18;;;1.30;;
37851;SDS011;23691;52.486;4.650;2022-09-09T14:26:50;5.13;;;1.10;;
37851;SDS011;23691;52.486;4.650;2022-09-09T14:29:16;6.28;;;1.25;;
37851;SDS011;23691;52.486;4.650;2022-09-09T14:31:42;9.93;;;1.30;;
37851;SDS011;23691;52.486;4.650;2022-09-09T14:34:07;8.40;;;1.60;;
37851;SDS011;23691;52.486;4.650;2022-09-09T14:36:33;7.95;;;1.50;;
37851;SDS011;23691;52.486;4.650;2022-09-09T14:38:58;5.63;;;1.40;;
37851;SDS011;23691;52.486;4.650;2022-09-09T14:41:23;6.72;;;1.65;;
37851;SDS011;23691;52.486;4.650;2022-09-09T14:43:50;7.25;;;1.50;;
37851;SDS011;23691;52.486;4.650;2022-09-09T14:46:18;5.97;;;1.30;;
37851;SDS011;23691;52.486;4.650;2022-09-09T14:48:44;6.15;;;1.40;;
37851;SDS011;23691;52.486;4.650;2022-09-09T14:51:23;5.65;;;1.40;;
37851;SDS011;23691;52.486;4.650;2022-09-09T14:53:54;5.73;;;1.53;;
37851;SDS011;23691;52.486;4.650;2022-09-09T14:56:21;7.57;;;1.40;;
37851;SDS011;23691;52.486;4.650;2022-09-09T14:58:49;5.97;;;1.42;;
37851;SDS011;23691;52.486;4.650;2022-09-09T15:01:16;7.85;;;1.48;;
37851;SDS011;23691;52.486;4.650;2022-09-09T15:03:48;6.68;;;1.50;;
37851;SDS011;23691;52.486;4.650;2022-09-09T15:06:15;7.18;;;1.52;;
37851;SDS011;23691;52.486;4.650;2022-09-09T15:08:43;6.85;;;1.83;;
37851;SDS011;23691;52.486;4.650;2022-09-09T15:11:10;7.55;;;1.60;;
37851;SDS011;23691;52.486;4.650;2022-09-09T15:13:37;8.77;;;1.65;;
37851;SDS011;23691;52.486;4.650;2022-09-09T15:16:08;7.20;;;1.52;;
37851;SDS011;23691;52.486;4.650;2022-09-09T15:18:39;9.48;;;1.50;;
37851;SDS011;23691;52.486;4.650;2022-09-09T15:21:13;7.07;;;1.65;;
37851;SDS011;23691;52.486;4.650;2022-09-09T15:23:46;7.60;;;1.52;;
37851;SDS011;23691;52.486;4.650;2022-09-09T15:26:12;7.45;;;1.40;;
37851;SDS011;23691;52.486;4.650;2022-09-09T15:28:42;7.40;;;1.40;;
37851;SDS011;23691;52.486;4.650;2022-09-09T15:31:16;8.55;;;1.30;;
37851;SDS011;23691;52.486;4.650;2022-09-09T15:33:47;7.20;;;1.35;;
37851;SDS011;23691;52.486;4.650;2022-09-09T15:36:26;7.28;;;1.60;;
37851;SDS011;23691;52.486;4.650;2022-09-09T15:38:54;6.55;;;1.30;;
37851;SDS011;23691;52.486;4.650;2022-09-09T15:41:21;10.02;;;1.73;;
37851;SDS011;23691;52.486;4.650;2022-09-09T15:43:48;10.15;;;1.75;;
37851;SDS011;23691;52.486;4.650;2022-09-09T15:46:31;11.70;;;1.75;;
37851;SDS011;23691;52.486;4.650;2022-09-09T15:49:12;10.98;;;1.60;;
37851;SDS011;23691;52.486;4.650;2022-09-09T15:51:40;8.90;;;1.60;;
37851;SDS011;23691;52.486;4.650;2022-09-09T15:54:08;12.27;;;1.90;;
37851;SDS011;23691;52.486;4.650;2022-09-09T15:56:34;8.65;;;1.70;;
37851;SDS011;23691;52.486;4.650;2022-09-09T15:59:00;10.75;;;2.22;;
37851;SDS011;23691;52.486;4.650;2022-09-09T16:01:28;12.52;;;1.80;;
37851;SDS011;23691;52.486;4.650;2022-09-09T16:03:55;8.85;;;1.80;;
37851;SDS011;23691;52.486;4.650;2022-09-09T16:06:22;12.73;;;1.88;;
37851;SDS011;23691;52.486;4.650;2022-09-09T16:08:50;11.02;;;1.70;;
37851;SDS011;23691;52.486;4.650;2022-09-09T16:11:18;12.32;;;1.65;;
37851;SDS011;23691;52.486;4.650;2022-09-09T16:13:46;15.55;;;2.13;;
37851;SDS011;23691;52.486;4.650;2022-09-09T16:16:17;12.52;;;1.73;;
37851;SDS011;23691;52.486;4.650;2022-09-09T16:18:45;13.77;;;1.90;;
37851;SDS011;23691;52.486;4.650;2022-09-09T16:21:13;10.68;;;1.90;;
37851;SDS011;23691;52.486;4.650;2022-09-09T16:23:41;9.88;;;2.10;;
37851;SDS011;23691;52.486;4.650;2022-09-09T16:26:08;12.13;;;1.88;;
37851;SDS011;23691;52.486;4.650;2022-09-09T16:28:36;11.48;;;2.17;;
37851;SDS011;23691;52.486;4.650;2022-09-09T16:31:04;12.43;;;2.15;;
37851;SDS011;23691;52.486;4.650;2022-09-09T16:33:31;10.80;;;2.17;;
37851;SDS011;23691;52.486;4.650;2022-09-09T16:35:56;10.68;;;1.83;;
37851;SDS011;23691;52.486;4.650;2022-09-09T16:38:22;12.45;;;2.30;;
37851;SDS011;23691;52.486;4.650;2022-09-09T16:40:47;12.18;;;2.00;;
37851;SDS011;23691;52.486;4.650;2022-09-09T16:43:15;12.23;;;2.22;;
37851;SDS011;23691;52.486;4.650;2022-09-09T16:45:44;15.70;;;2.90;;
37851;SDS011;23691;52.486;4.650;2022-09-09T16:48:10;13.40;;;2.15;;
37851;SDS011;23691;52.486;4.650;2022-09-09T16:50:36;19.38;;;3.28;;
37851;SDS011;23691;52.486;4.650;2022-09-09T16:53:02;15.18;;;2.70;;
37851;SDS011;23691;52.486;4.650;2022-09-09T16:55:31;13.30;;;2.75;;
37851;SDS011;23691;52.486;4.650;2022-09-09T16:57:57;12.18;;;2.53;;
37851;SDS011;23691;52.486;4.650;2022-09-09T17:00:22;10.45;;;2.03;;
37851;SDS011;23691;52.486;4.650;2022-09-09T17:02:48;12.00;;;2.17;;
37851;SDS011;23691;52.486;4.650;2022-09-09T17:05:13;12.15;;;2.40;;
37851;SDS011;23691;52.486;4.650;2022-09-09T17:07:39;11.60;;;2.08;;
37851;SDS011;23691;52.486;4.650;2022-09-09T17:10:05;12.18;;;2.13;;
37851;SDS011;23691;52.486;4.650;2022-09-09T17:12:32;11.25;;;2.10;;
37851;SDS011;23691;52.486;4.650;2022-09-09T17:14:57;6.80;;;1.60;;
37851;SDS011;23691;52.486;4.650;2022-09-09T17:17:24;12.45;;;2.33;;
37851;SDS011;23691;52.486;4.650;2022-09-09T17:19:51;10.18;;;2.47;;
37851;SDS011;23691;52.486;4.650;2022-09-09T17:22:17;12.45;;;2.10;;
37851;SDS011;23691;52.486;4.650;2022-09-09T17:24:43;12.00;;;2.42;;
37851;SDS011;23691;52.486;4.650;2022-09-09T17:27:09;11.40;;;2.45;;
37851;SDS011;23691;52.486;4.650;2022-09-09T17:29:34;11.48;;;2.58;;
37851;SDS011;23691;52.486;4.650;2022-09-09T17:32:01;12.95;;;2.75;;
37851;SDS011;23691;52.486;4.650;2022-09-09T17:34:27;14.27;;;2.80;;
37851;SDS011;23691;52.486;4.650;2022-09-09T17:36:52;14.45;;;2.75;;